Time,TemperatureF,DewpointF,PressureIn,WindDirection,WindDirectionDegrees,WindSpeedMPH,WindSpeedGustMPH,Humidity,HourlyPrecipIn,Conditions,Clouds,dailyrainin,SoftwareType,DateUTC
2013-01-18 00:00:00,9.0,0.0,30.22,SW,230,3.0,-999.0,66,-99.99,,,-99.99,,2013-01-18 00:00:00,
2013-01-18 00:22:00,9.0,0.0,30.22,SW,230,3.0,-999.0,66,-99.99,,,-99.99,,2013-01-18 00:22:00,
2013-01-18 00:32:00,9.0,0.0,30.22,SW,230,3.0,-999.0,66,-99.99,,,-99.99,,2013-01-18 00:32:00,
2013-01-18 00:42:00,9.0,0.0,30.22,SW,230,3.0,-999.0,66,-99.99,,,-99.99,,2013-01-18 00:42:00,
2013-01-18 00:52:00,9.0,0.0,30.22,SW,230,3.0,-999.0,66,-99.99,,,-99.99,,2013-01-18 00:52:00,
2013-01-18 01:00:00,13.0,4.0,30.22,SW,220,8.0,-999.0,69,-99.99,,,-99.99,,2013-01-18 01:00:00,
2013-01-18 01:22:00,13.0,4.0,30.22,SW,220,8.0,-999.0,69,-99.99,,,-99.99,,2013-01-18 01:22:00,
2013-01-18 01:32:00,13.0,4.0,30.22,SW,220,8.0,-999.0,69,-99.99,,,-99.99,,2013-01-18 01:32:00,
2013-01-18 01:42:00,13.0,4.0,30.22,SW,220,8.0,-999.0,69,-99.99,,,-99.99,,2013-01-18 01:42:00,
2013-01-18 01:52:00,13.0,4.0,30.22,SW,220,8.0,-999.0,69,-99.99,,,-99.99,,2013-01-18 01:52:00,
2013-01-18 02:00:00,11.0,4.0,30.23,West,260,8.0,-999.0,73,-99.99,,,-99.99,,2013-01-18 02:00:00,
2013-01-18 02:22:00,11.0,4.0,30.23,West,260,8.0,-999.0,73,-99.99,,,-99.99,,2013-01-18 02:22:00,
2013-01-18 02:32:00,11.0,4.0,30.23,West,260,8.0,-999.0,73,-99.99,,,-99.99,,2013-01-18 02:32:00,
2013-01-18 02:42:00,11.0,4.0,30.23,West,260,8.0,-999.0,73,-99.99,,,-99.99,,2013-01-18 02:42:00,
2013-01-18 02:52:00,11.0,4.0,30.23,West,260,8.0,-999.0,73,-99.99,,,-99.99,,2013-01-18 02:52:00,
2013-01-18 04:22:00,13.0,9.0,30.22,West,280,2.0,-999.0,83,-99.99,,,-99.99,,2013-01-18 04:22:00,
2013-01-18 04:32:00,13.0,9.0,30.22,West,280,2.0,-999.0,83,-99.99,,,-99.99,,2013-01-18 04:32:00,
2013-01-18 04:42:00,13.0,9.0,30.22,West,280,2.0,-999.0,83,-99.99,,,-99.99,,2013-01-18 04:42:00,
2013-01-18 04:52:00,13.0,9.0,30.22,West,280,2.0,-999.0,83,-99.99,,,-99.99,,2013-01-18 04:52:00,
2013-01-18 05:00:00,13.0,8.0,30.23,WNW,290,3.0,-999.0,80,-99.99,,,-99.99,,2013-01-18 05:00:00,
2013-01-18 05:22:00,13.0,8.0,30.23,WNW,290,3.0,-999.0,80,-99.99,,,-99.99,,2013-01-18 05:22:00,
2013-01-18 05:32:00,13.0,8.0,30.23,WNW,290,3.0,-999.0,80,-99.99,,,-99.99,,2013-01-18 05:32:00,
2013-01-18 05:42:00,13.0,8.0,30.23,WNW,290,3.0,-999.0,80,-99.99,,,-99.99,,2013-01-18 05:42:00,
2013-01-18 05:52:00,13.0,8.0,30.23,WNW,290,3.0,-999.0,80,-99.99,,,-99.99,,2013-01-18 05:52:00,
2013-01-18 06:00:00,10.0,3.0,30.24,WNW,290,2.0,-999.0,72,-99.99,,,-99.99,,2013-01-18 06:00:00,
2013-01-18 06:22:00,10.0,3.0,30.24,WNW,290,2.0,-999.0,72,-99.99,,,-99.99,,2013-01-18 06:22:00,
2013-01-18 06:32:00,10.0,3.0,30.24,WNW,290,2.0,-999.0,72,-99.99,,,-99.99,,2013-01-18 06:32:00,
2013-01-18 06:42:00,10.0,3.0,30.24,WNW,290,2.0,-999.0,72,-99.99,,,-99.99,,2013-01-18 06:42:00,
2013-01-18 06:52:00,10.0,3.0,30.24,WNW,290,2.0,-999.0,72,-99.99,,,-99.99,,2013-01-18 06:52:00,
2013-01-18 07:00:00,9.0,2.0,30.26,North,350,1.0,-999.0,71,-99.99,,,-99.99,,2013-01-18 07:00:00,
2013-01-18 07:22:00,9.0,2.0,30.26,North,350,1.0,-999.0,71,-99.99,,,-99.99,,2013-01-18 07:22:00,
2013-01-18 07:32:00,9.0,2.0,30.26,North,350,1.0,-999.0,71,-99.99,,,-99.99,,2013-01-18 07:32:00,
2013-01-18 07:42:00,9.0,2.0,30.26,North,350,1.0,-999.0,71,-99.99,,,-99.99,,2013-01-18 07:42:00,
2013-01-18 07:52:00,9.0,2.0,30.26,North,350,1.0,-999.0,71,-99.99,,,-99.99,,2013-01-18 07:52:00,
2013-01-18 11:00:00,5.0,-2.0,30.34,North,0,0.0,-999.0,73,-99.99,,,-99.99,,2013-01-18 11:00:00,
2013-01-18 11:22:00,5.0,-2.0,30.34,North,0,0.0,-999.0,73,-99.99,,,-99.99,,2013-01-18 11:22:00,
2013-01-18 11:32:00,5.0,-2.0,30.34,North,0,0.0,-999.0,73,-99.99,,,-99.99,,2013-01-18 11:32:00,
2013-01-18 11:42:00,5.0,-2.0,30.34,North,0,0.0,-999.0,73,-99.99,,,-99.99,,2013-01-18 11:42:00,
2013-01-18 11:52:00,5.0,-2.0,30.34,North,0,0.0,-999.0,73,-99.99,,,-99.99,,2013-01-18 11:52:00,
2013-01-18 12:00:00,5.0,-1.0,30.34,North,0,0.0,-999.0,77,-99.99,,,-99.99,,2013-01-18 12:00:00,
2013-01-18 12:22:00,5.0,-1.0,30.34,North,0,0.0,-999.0,77,-99.99,,,-99.99,,2013-01-18 12:22:00,
2013-01-18 12:32:00,5.0,-1.0,30.34,North,0,0.0,-999.0,77,-99.99,,,-99.99,,2013-01-18 12:32:00,
2013-01-18 12:42:00,5.0,-1.0,30.34,North,0,0.0,-999.0,77,-99.99,,,-99.99,,2013-01-18 12:42:00,
2013-01-18 12:52:00,5.0,-1.0,30.34,North,0,0.0,-999.0,77,-99.99,,,-99.99,,2013-01-18 12:52:00,
2013-01-18 13:00:00,6.0,-3.0,30.34,North,0,0.0,-999.0,65,-99.99,,,-99.99,,2013-01-18 13:00:00,
2013-01-18 13:22:00,6.0,-3.0,30.34,North,0,0.0,-999.0,65,-99.99,,,-99.99,,2013-01-18 13:22:00,
2013-01-18 13:32:00,6.0,-3.0,30.34,North,0,0.0,-999.0,65,-99.99,,,-99.99,,2013-01-18 13:32:00,
2013-01-18 13:42:00,6.0,-3.0,30.34,North,0,0.0,-999.0,65,-99.99,,,-99.99,,2013-01-18 13:42:00,
2013-01-18 13:52:00,6.0,-3.0,30.34,North,0,0.0,-999.0,65,-99.99,,,-99.99,,2013-01-18 13:52:00,
2013-01-18 14:00:00,7.0,0.0,30.34,SSW,200,9.0,-999.0,74,-99.99,,,-99.99,,2013-01-18 14:00:00,
2013-01-18 14:22:00,7.0,0.0,30.34,SSW,200,9.0,-999.0,74,-99.99,,,-99.99,,2013-01-18 14:22:00,
2013-01-18 14:33:00,7.0,0.0,30.34,SSW,200,9.0,-999.0,74,-99.99,,,-99.99,,2013-01-18 14:33:00,
2013-01-18 14:42:00,7.0,0.0,30.34,SSW,200,9.0,-999.0,74,-99.99,,,-99.99,,2013-01-18 14:42:00,
2013-01-18 14:52:00,7.0,0.0,30.34,SSW,200,9.0,-999.0,74,-99.99,,,-99.99,,2013-01-18 14:52:00,
2013-01-18 15:00:00,9.0,1.0,30.34,West,280,1.0,-999.0,69,-99.99,,,-99.99,,2013-01-18 15:00:00,
2013-01-18 15:22:00,9.0,1.0,30.34,West,280,1.0,-999.0,69,-99.99,,,-99.99,,2013-01-18 15:22:00,
2013-01-18 15:32:00,9.0,1.0,30.34,West,280,1.0,-999.0,69,-99.99,,,-99.99,,2013-01-18 15:32:00,
2013-01-18 15:42:00,9.0,1.0,30.34,West,280,1.0,-999.0,69,-99.99,,,-99.99,,2013-01-18 15:42:00,
2013-01-18 15:52:00,9.0,1.0,30.34,West,280,1.0,-999.0,69,-99.99,,,-99.99,,2013-01-18 15:52:00,
2013-01-18 16:00:00,13.0,6.0,30.33,West,260,2.0,-999.0,72,-99.99,,,-99.99,,2013-01-18 16:00:00,
2013-01-18 16:22:00,13.0,6.0,30.33,West,260,2.0,-999.0,72,-99.99,,,-99.99,,2013-01-18 16:22:00,
2013-01-18 16:32:00,13.0,6.0,30.33,West,260,2.0,-999.0,72,-99.99,,,-99.99,,2013-01-18 16:32:00,
2013-01-18 16:42:00,13.0,6.0,30.33,West,260,2.0,-999.0,72,-99.99,,,-99.99,,2013-01-18 16:42:00,
2013-01-18 16:52:00,13.0,6.0,30.33,West,260,2.0,-999.0,72,-99.99,,,-99.99,,2013-01-18 16:52:00,
2013-01-18 17:00:00,16.0,8.0,30.29,SW,230,3.0,-999.0,70,-99.99,,,-99.99,,2013-01-18 17:00:00,
2013-01-18 17:22:00,16.0,8.0,30.29,SW,230,3.0,-999.0,70,-99.99,,,-99.99,,2013-01-18 17:22:00,
2013-01-18 17:33:00,16.0,8.0,30.29,SW,230,3.0,-999.0,70,-99.99,,,-99.99,,2013-01-18 17:33:00,
2013-01-18 17:42:00,16.0,8.0,30.29,SW,230,3.0,-999.0,70,-99.99,,,-99.99,,2013-01-18 17:42:00,
2013-01-18 17:52:00,16.0,8.0,30.29,SW,230,3.0,-999.0,70,-99.99,,,-99.99,,2013-01-18 17:52:00,
2013-01-18 18:00:00,19.0,13.0,30.24,WSW,240,5.0,-999.0,76,-99.99,,,-99.99,,2013-01-18 18:00:00,
2013-01-18 18:22:00,19.0,13.0,30.24,WSW,240,5.0,-999.0,76,-99.99,,,-99.99,,2013-01-18 18:22:00,
2013-01-18 18:32:00,19.0,13.0,30.24,WSW,240,5.0,-999.0,76,-99.99,,,-99.99,,2013-01-18 18:32:00,
2013-01-18 18:42:00,19.0,13.0,30.24,WSW,240,5.0,-999.0,76,-99.99,,,-99.99,,2013-01-18 18:42:00,
2013-01-18 18:52:00,19.0,13.0,30.24,WSW,240,5.0,-999.0,76,-99.99,,,-99.99,,2013-01-18 18:52:00,
2013-01-18 19:00:00,19.0,15.0,30.18,South,190,13.0,-999.0,82,-99.99,,,-99.99,,2013-01-18 19:00:00,
2013-01-18 19:22:00,19.0,15.0,30.18,South,190,13.0,-999.0,82,-99.99,,,-99.99,,2013-01-18 19:22:00,
2013-01-18 19:32:00,19.0,15.0,30.18,South,190,13.0,-999.0,82,-99.99,,,-99.99,,2013-01-18 19:32:00,
2013-01-18 19:42:00,19.0,15.0,30.18,South,190,13.0,-999.0,82,-99.99,,,-99.99,,2013-01-18 19:42:00,
2013-01-18 19:52:00,19.0,15.0,30.18,South,190,13.0,-999.0,82,-99.99,,,-99.99,,2013-01-18 19:52:00,
2013-01-18 20:00:00,18.0,15.0,30.14,SSW,210,10.0,-999.0,86,-99.99,,,-99.99,,2013-01-18 20:00:00,
2013-01-18 20:22:00,18.0,15.0,30.14,SSW,210,10.0,-999.0,86,-99.99,,,-99.99,,2013-01-18 20:22:00,
2013-01-18 20:32:00,18.0,15.0,30.14,SSW,210,10.0,-999.0,86,-99.99,,,-99.99,,2013-01-18 20:32:00,
2013-01-18 20:42:00,18.0,15.0,30.14,SSW,210,10.0,-999.0,86,-99.99,,,-99.99,,2013-01-18 20:42:00,
2013-01-18 20:52:00,18.0,15.0,30.14,SSW,210,10.0,-999.0,86,-99.99,,,-99.99,,2013-01-18 20:52:00,
2013-01-18 21:00:00,23.0,19.0,30.11,SSW,210,9.0,-999.0,84,-99.99,,,-99.99,,2013-01-18 21:00:00,
2013-01-18 21:22:00,23.0,19.0,30.11,SSW,210,9.0,-999.0,84,-99.99,,,-99.99,,2013-01-18 21:22:00,
2013-01-18 21:32:00,23.0,19.0,30.11,SSW,210,9.0,-999.0,84,-99.99,,,-99.99,,2013-01-18 21:32:00,
2013-01-18 21:42:00,23.0,19.0,30.11,SSW,210,9.0,-999.0,84,-99.99,,,-99.99,,2013-01-18 21:42:00,
2013-01-18 21:52:00,23.0,19.0,30.11,SSW,210,9.0,-999.0,84,-99.99,,,-99.99,,2013-01-18 21:52:00,
2013-01-18 22:00:00,20.0,18.0,30.08,South,180,6.0,-999.0,90,-99.99,,,-99.99,,2013-01-18 22:00:00,
2013-01-18 22:22:00,20.0,18.0,30.08,South,180,6.0,-999.0,90,-99.99,,,-99.99,,2013-01-18 22:22:00,
2013-01-18 22:32:00,20.0,18.0,30.08,South,180,6.0,-999.0,90,-99.99,,,-99.99,,2013-01-18 22:32:00,
2013-01-18 22:42:00,20.0,18.0,30.08,South,180,6.0,-999.0,90,-99.99,,,-99.99,,2013-01-18 22:42:00,
2013-01-18 22:52:00,20.0,18.0,30.08,South,180,6.0,-999.0,90,-99.99,,,-99.99,,2013-01-18 22:52:00,
2013-01-18 23:00:00,20.0,18.0,30.03,ESE,120,7.0,-999.0,91,-99.99,,,-99.99,,2013-01-18 23:00:00,
2013-01-18 23:22:00,20.0,18.0,30.03,ESE,120,7.0,-999.0,91,-99.99,,,-99.99,,2013-01-18 23:22:00,
2013-01-18 23:32:00,20.0,18.0,30.03,ESE,120,7.0,-999.0,91,-99.99,,,-99.99,,2013-01-18 23:32:00,
2013-01-18 23:42:00,20.0,18.0,30.03,ESE,120,7.0,-999.0,91,-99.99,,,-99.99,,2013-01-18 23:42:00,
2013-01-18 23:52:00,20.0,18.0,30.03,ESE,120,7.0,-999.0,91,-99.99,,,-99.99,,2013-01-18 23:52:00,